EGSS

London Stansted Airport

London, United Kingdom
METAR EGSS 170750Z AUTO 24006KT 0150 R22/0450 FZFG VV/// M01/M01 Q1024
Observed Flight Rules
Dec-17 @ 07:50 UTC (23 minutes ago) Instrument Flight Rules
Wind Visibility Clouds Conditions
240° at 6 knots 145 meters
  • Vertical visibility
  • Freezing
  • Fog
Temperatures Readings
Current -1°C / 30°F
Dewpoint -1°C / 30°F
Humidity 100%
Altimeter 30.24" Hg
Pressure 1024 hPa
Elevation 106
METAR EGSS 170750Z AUTO 24006KT 0150 R22/0450 FZFG VV/// M01/M01 Q1024
Observed Flight Rules
Dec-17 @ 07:50 UTC
(23 minutes ago)
LIFR
Wind Visibility
240° at 6 knots 145 meters
Clouds
  • Vertical visibility
Conditions
  • Freezing
  • Fog
Temperature Dewpoint
-1°C / 30°F -1°C / 30°F
Humidity Altimeter Pressure
100% 30.24" Hg 1024 hPa